createdAt,value
2023-03-28T00:01:42.322Z,8.38
2023-03-28T00:04:11.623Z,6.10
2023-03-28T00:06:39.724Z,8.38
2023-03-28T00:09:07.691Z,8.23
2023-03-28T00:11:35.720Z,7.30
2023-03-28T00:14:03.680Z,6.47
2023-03-28T00:16:33.152Z,7.80
2023-03-28T00:19:03.020Z,5.25
2023-03-28T00:21:31.966Z,8.02
2023-03-28T00:24:02.366Z,6.47
2023-03-28T00:26:31.605Z,8.15
2023-03-28T00:29:01.442Z,8.85
2023-03-28T00:31:29.852Z,7.45
2023-03-28T00:33:58.106Z,6.88
2023-03-28T00:36:29.568Z,7.78
2023-03-28T00:38:58.274Z,5.90
2023-03-28T00:41:27.215Z,7.15
2023-03-28T00:43:55.630Z,6.20
2023-03-28T00:46:26.350Z,6.10
2023-03-28T00:48:57.357Z,5.88
2023-03-28T00:51:28.113Z,5.38
2023-03-28T00:53:57.921Z,6.28
2023-03-28T00:56:26.997Z,6.63
2023-03-28T00:58:55.664Z,6.60
2023-03-28T01:01:23.718Z,8.68
2023-03-28T01:03:56.208Z,7.60
2023-03-28T01:06:24.468Z,6.10
2023-03-28T01:08:53.764Z,6.07
2023-03-28T01:11:22.982Z,8.15
2023-03-28T01:13:52.164Z,5.53
2023-03-28T01:16:26.969Z,5.90
2023-03-28T01:18:56.835Z,6.13
2023-03-28T01:21:42.179Z,6.03
2023-03-28T01:24:21.108Z,7.07
2023-03-28T01:26:51.952Z,4.80
2023-03-28T01:30:01.659Z,6.25
2023-03-28T01:33:10.477Z,6.13
2023-03-28T01:36:33.972Z,5.65
2023-03-28T01:39:05.998Z,6.28
2023-03-28T01:41:37.849Z,5.60
2023-03-28T01:44:07.205Z,6.93
2023-03-28T01:46:37.762Z,4.90
2023-03-28T01:49:08.133Z,6.00
2023-03-28T01:51:43.013Z,6.00
2023-03-28T01:54:14.966Z,5.72
2023-03-28T01:56:46.113Z,5.88
2023-03-28T01:59:16.423Z,5.10
2023-03-28T02:02:04.621Z,6.32
2023-03-28T02:04:33.380Z,5.38
2023-03-28T02:07:01.981Z,5.80
2023-03-28T02:09:35.872Z,4.85
2023-03-28T02:12:12.563Z,4.85
2023-03-28T02:14:59.043Z,4.95
2023-03-28T02:18:13.620Z,4.80
2023-03-28T02:20:54.948Z,4.68
2023-03-28T02:23:47.334Z,5.53
2023-03-28T02:26:42.545Z,5.47
2023-03-28T02:29:30.608Z,4.80
2023-03-28T02:32:08.541Z,5.15
2023-03-28T02:34:36.457Z,4.82
2023-03-28T02:37:07.848Z,5.72
2023-03-28T02:39:52.219Z,4.63
2023-03-28T02:42:44.821Z,4.53
2023-03-28T02:45:23.240Z,4.72
2023-03-28T02:47:56.875Z,5.13
2023-03-28T02:50:27.358Z,5.30
2023-03-28T02:52:56.230Z,4.38
2023-03-28T02:55:26.317Z,6.45
2023-03-28T02:58:08.128Z,5.50
2023-03-28T03:00:36.589Z,5.32
2023-03-28T03:03:05.429Z,5.00
2023-03-28T03:05:33.440Z,5.93
2023-03-28T03:08:01.321Z,7.22
2023-03-28T03:10:29.682Z,6.13
2023-03-28T03:12:58.393Z,5.45
2023-03-28T03:15:30.941Z,5.40
2023-03-28T03:17:59.674Z,5.22
2023-03-28T03:20:34.384Z,5.03
2023-03-28T03:23:03.924Z,4.93
2023-03-28T03:25:35.487Z,7.32
2023-03-28T03:28:18.768Z,5.72
2023-03-28T03:30:48.853Z,4.80
2023-03-28T03:33:34.142Z,5.95
2023-03-28T03:36:05.877Z,5.30
2023-03-28T03:38:34.858Z,4.88
2023-03-28T03:41:02.887Z,5.63
2023-03-28T03:43:30.835Z,5.47
2023-03-28T03:46:01.100Z,6.38
2023-03-28T03:48:29.395Z,4.95
2023-03-28T03:50:59.682Z,5.10
2023-03-28T03:53:27.616Z,5.25
2023-03-28T03:56:13.747Z,5.10
2023-03-28T03:58:56.278Z,5.45
2023-03-28T04:01:30.903Z,4.32
2023-03-28T04:04:09.564Z,9.75
2023-03-28T04:06:58.201Z,4.95
2023-03-28T04:09:27.360Z,5.97
2023-03-28T04:12:02.217Z,6.18
2023-03-28T04:14:31.187Z,5.45
2023-03-28T04:17:21.470Z,5.22
2023-03-28T04:19:49.738Z,5.85
2023-03-28T04:22:19.171Z,5.72
2023-03-28T04:24:53.352Z,7.55
2023-03-28T04:27:35.659Z,5.25
2023-03-28T04:30:04.601Z,5.28
2023-03-28T04:32:54.551Z,5.43
2023-03-28T04:35:29.777Z,6.28
2023-03-28T04:37:58.900Z,5.18
2023-03-28T04:40:29.279Z,5.35
2023-03-28T04:43:17.463Z,7.03
2023-03-28T04:45:51.519Z,5.28
2023-03-28T04:48:21.150Z,5.57
2023-03-28T04:50:49.422Z,4.55
2023-03-28T04:53:17.732Z,6.45
2023-03-28T04:56:09.317Z,5.60
2023-03-28T04:58:37.702Z,5.47
2023-03-28T05:01:05.958Z,7.82
2023-03-28T05:03:53.830Z,6.15
2023-03-28T05:06:22.567Z,5.50
2023-03-28T05:08:51.061Z,6.93
2023-03-28T05:11:19.386Z,5.65
2023-03-28T05:13:47.310Z,4.38
2023-03-28T05:16:28.017Z,8.00
2023-03-28T05:19:18.098Z,9.68
2023-03-28T05:21:58.416Z,6.75
2023-03-28T05:24:26.338Z,6.43
2023-03-28T05:26:55.669Z,5.70
2023-03-28T05:29:25.250Z,6.47
2023-03-28T05:31:53.996Z,6.55
2023-03-28T05:34:29.445Z,4.68
2023-03-28T05:36:57.969Z,6.70
2023-03-28T05:39:29.489Z,6.22
2023-03-28T05:42:06.087Z,48.90
2023-03-28T05:44:36.708Z,50.22
2023-03-28T05:47:16.621Z,61.97
2023-03-28T05:49:46.054Z,87.70
2023-03-28T05:52:13.945Z,110.35
2023-03-28T05:54:42.193Z,81.35
2023-03-28T05:57:19.815Z,97.60
2023-03-28T05:59:48.485Z,58.15
2023-03-28T06:02:20.814Z,78.25
2023-03-28T06:04:50.303Z,64.78
2023-03-28T06:07:21.169Z,64.40
2023-03-28T06:09:53.823Z,47.97
2023-03-28T06:12:21.846Z,44.20
2023-03-28T06:14:52.908Z,53.63
2023-03-28T06:17:25.339Z,45.20
2023-03-28T06:19:58.986Z,42.03
2023-03-28T06:22:27.527Z,42.30
2023-03-28T06:24:59.219Z,33.53
2023-03-28T06:27:34.054Z,42.72
2023-03-28T06:30:04.594Z,36.20
2023-03-28T06:32:37.759Z,36.20
2023-03-28T06:35:08.365Z,30.90
2023-03-28T06:37:36.284Z,34.00
2023-03-28T06:40:09.311Z,31.20
2023-03-28T06:42:37.331Z,33.20
2023-03-28T06:45:22.886Z,33.53
2023-03-28T06:47:57.513Z,34.70
2023-03-28T06:50:40.653Z,32.75
2023-03-28T06:53:12.059Z,30.15
2023-03-28T06:55:41.297Z,26.77
2023-03-28T06:58:09.312Z,24.67
2023-03-28T07:00:52.040Z,27.23
2023-03-28T07:03:46.238Z,26.48
2023-03-28T07:06:21.458Z,28.88
2023-03-28T07:08:49.749Z,29.00
2023-03-28T07:11:21.329Z,22.13
2023-03-28T07:13:51.403Z,21.90
2023-03-28T07:16:20.925Z,23.83
2023-03-28T07:18:49.927Z,23.17
2023-03-28T07:21:24.889Z,23.42
2023-03-28T07:23:56.617Z,21.42
2023-03-28T07:26:28.588Z,20.55
2023-03-28T07:28:56.588Z,18.88
2023-03-28T07:31:25.899Z,21.17
2023-03-28T07:33:53.913Z,18.80
2023-03-28T07:36:23.978Z,16.77
2023-03-28T07:38:55.935Z,16.90
2023-03-28T07:41:24.585Z,20.45
2023-03-28T07:43:52.506Z,16.90
2023-03-28T07:46:21.022Z,23.00
2023-03-28T07:48:49.029Z,15.85
2023-03-28T07:51:17.455Z,19.40
2023-03-28T07:53:46.837Z,15.55
2023-03-28T07:56:14.940Z,28.30
2023-03-28T07:59:13.581Z,21.92
2023-03-28T08:01:42.076Z,22.35
2023-03-28T08:04:10.400Z,27.38
2023-03-28T08:06:52.206Z,29.10
2023-03-28T08:09:21.515Z,26.13
2023-03-28T08:11:59.594Z,27.52
2023-03-28T08:14:27.583Z,33.75
2023-03-28T08:16:56.857Z,28.02
2023-03-28T08:19:24.828Z,37.53
2023-03-28T08:22:16.665Z,32.13
2023-03-28T08:24:53.132Z,31.23
2023-03-28T08:27:23.781Z,32.53
2023-03-28T08:29:57.872Z,31.85
2023-03-28T08:32:27.051Z,26.33
2023-03-28T08:34:57.937Z,28.65
2023-03-28T08:37:27.941Z,31.52
2023-03-28T08:39:58.939Z,29.05
2023-03-28T08:42:37.121Z,26.08
2023-03-28T08:45:24.021Z,26.77
2023-03-28T08:47:57.200Z,24.00
2023-03-28T08:50:26.701Z,24.63
2023-03-28T08:52:55.606Z,24.15
2023-03-28T08:55:31.919Z,24.05
2023-03-28T08:58:00.842Z,16.85
2023-03-28T09:00:29.802Z,17.48
2023-03-28T09:02:58.077Z,20.83
2023-03-28T09:05:31.748Z,22.55
2023-03-28T09:08:10.193Z,17.77
2023-03-28T09:10:40.991Z,18.48
2023-03-28T09:13:23.654Z,22.75
2023-03-28T09:15:59.276Z,20.88
2023-03-28T09:18:44.083Z,17.38
2023-03-28T09:21:15.325Z,15.23
2023-03-28T09:24:16.330Z,18.98
2023-03-28T09:26:54.857Z,15.80
2023-03-28T09:29:24.977Z,14.60
2023-03-28T09:31:56.091Z,18.00
2023-03-28T09:34:27.591Z,14.30
2023-03-28T09:37:00.814Z,15.73
2023-03-28T09:39:33.986Z,17.80
2023-03-28T09:42:05.305Z,12.45
2023-03-28T09:45:01.135Z,15.75
2023-03-28T09:47:48.828Z,15.55
2023-03-28T09:50:20.677Z,16.52
2023-03-28T09:52:53.407Z,11.80
2023-03-28T09:55:22.137Z,15.43
2023-03-28T09:58:03.448Z,11.68
2023-03-28T10:00:35.911Z,13.30
2023-03-28T10:03:42.063Z,12.85
2023-03-28T10:06:19.657Z,13.48
2023-03-28T10:08:48.461Z,13.45
2023-03-28T10:11:27.426Z,12.00
2023-03-28T10:13:57.657Z,11.95
2023-03-28T10:16:28.292Z,14.90
2023-03-28T10:18:59.069Z,15.23
2023-03-28T10:21:56.131Z,19.13
2023-03-28T10:24:27.615Z,18.65
2023-03-28T10:27:00.803Z,20.83
2023-03-28T10:29:30.158Z,15.80
2023-03-28T10:31:58.158Z,16.33
2023-03-28T10:34:33.704Z,16.67
2023-03-28T10:37:04.440Z,15.70
2023-03-28T10:39:50.811Z,14.32
2023-03-28T10:42:43.788Z,15.98
2023-03-28T10:45:37.657Z,16.27
2023-03-28T10:48:10.442Z,15.02
2023-03-28T10:50:41.734Z,14.55
2023-03-28T10:53:33.374Z,17.42
2023-03-28T10:56:11.740Z,13.70
2023-03-28T10:58:46.102Z,18.40
2023-03-28T11:01:24.696Z,17.58
2023-03-28T11:04:06.884Z,13.82
2023-03-28T11:06:36.305Z,15.52
2023-03-28T11:09:08.039Z,12.27
2023-03-28T11:11:58.132Z,12.23
2023-03-28T11:14:33.138Z,13.85
2023-03-28T11:17:04.575Z,20.33
2023-03-28T11:20:02.177Z,17.63
2023-03-28T11:22:38.886Z,15.68
2023-03-28T11:25:13.317Z,11.40
2023-03-28T11:28:01.964Z,8.32
2023-03-28T11:30:37.266Z,15.20
2023-03-28T11:33:22.554Z,11.90
2023-03-28T11:35:59.009Z,14.63
2023-03-28T11:38:28.146Z,14.75
2023-03-28T11:40:57.742Z,12.75
2023-03-28T11:43:47.452Z,12.40
2023-03-28T11:46:17.304Z,10.45
2023-03-28T11:48:48.987Z,11.35
2023-03-28T11:51:23.905Z,11.57
2023-03-28T11:53:57.715Z,13.30
2023-03-28T11:56:36.084Z,9.57
2023-03-28T11:59:13.823Z,8.77
2023-03-28T12:01:43.464Z,11.48
2023-03-28T12:04:13.309Z,17.20
2023-03-28T12:06:52.284Z,8.98
2023-03-28T12:09:31.964Z,9.32
2023-03-28T12:12:02.140Z,7.03
2023-03-28T12:14:44.962Z,9.57
2023-03-28T12:17:25.357Z,9.85
2023-03-28T12:19:54.978Z,10.20
2023-03-28T12:22:26.727Z,9.43
2023-03-28T12:24:59.521Z,10.82
2023-03-28T12:27:42.511Z,8.07
2023-03-28T12:30:21.240Z,12.30
2023-03-28T12:32:53.724Z,10.40
2023-03-28T12:35:27.990Z,10.02
2023-03-28T12:38:06.979Z,8.35
2023-03-28T12:40:47.351Z,13.18
2023-03-28T12:43:16.255Z,7.13
2023-03-28T12:45:46.505Z,8.63
2023-03-28T12:48:16.323Z,7.30
2023-03-28T12:50:47.418Z,11.18
2023-03-28T12:53:16.439Z,7.25
2023-03-28T12:55:46.742Z,7.32
2023-03-28T12:58:26.110Z,8.60
2023-03-28T13:01:28.313Z,13.68
2023-03-28T13:04:27.354Z,7.55
2023-03-28T13:07:14.697Z,8.95
2023-03-28T13:09:52.320Z,4.97
2023-03-28T13:12:32.536Z,7.10
2023-03-28T13:15:01.748Z,6.53
2023-03-28T13:17:30.761Z,9.00
2023-03-28T13:20:07.755Z,6.20
2023-03-28T13:22:42.048Z,5.65
2023-03-28T13:25:28.145Z,6.57
2023-03-28T13:27:57.147Z,9.15
2023-03-28T13:30:26.330Z,5.78
2023-03-28T13:32:55.379Z,7.00
2023-03-28T13:35:45.407Z,5.35
2023-03-28T13:38:25.651Z,7.03
2023-03-28T13:40:55.782Z,6.65
2023-03-28T13:43:25.018Z,5.65
2023-03-28T13:45:54.400Z,6.13
2023-03-28T13:48:23.013Z,6.43
2023-03-28T13:50:50.925Z,6.30
2023-03-28T13:53:18.881Z,6.38
2023-03-28T13:55:48.176Z,6.45
2023-03-28T13:58:17.873Z,6.60
2023-03-28T14:00:49.622Z,7.07
2023-03-28T14:03:17.764Z,5.68
2023-03-28T14:05:46.448Z,5.13
2023-03-28T14:08:25.304Z,6.50
2023-03-28T14:10:56.843Z,6.88
2023-03-28T14:13:25.699Z,5.18
2023-03-28T14:15:53.818Z,10.68
2023-03-28T14:18:24.620Z,16.65
2023-03-28T14:20:52.667Z,9.88
2023-03-28T14:23:28.296Z,11.40
2023-03-28T14:25:58.364Z,11.50
2023-03-28T14:28:29.081Z,8.43
2023-03-28T14:30:57.162Z,12.15
2023-03-28T14:33:25.326Z,5.28
2023-03-28T14:36:00.264Z,4.78
2023-03-28T14:38:30.305Z,8.52
2023-03-28T14:41:06.173Z,7.25
2023-03-28T14:43:34.083Z,7.80
2023-03-28T14:46:03.766Z,5.93
2023-03-28T14:48:32.212Z,6.65
2023-03-28T14:51:00.472Z,6.28
2023-03-28T14:53:29.332Z,6.90
2023-03-28T14:56:01.177Z,5.85
2023-03-28T14:58:31.655Z,6.32
2023-03-28T15:01:01.889Z,5.10
2023-03-28T15:03:33.097Z,5.82
2023-03-28T15:06:01.091Z,6.13
2023-03-28T15:08:31.554Z,5.30
2023-03-28T15:11:03.243Z,5.72
2023-03-28T15:13:33.851Z,6.28
2023-03-28T15:16:02.008Z,8.32
2023-03-28T15:18:31.432Z,7.43
2023-03-28T15:21:00.883Z,5.43
2023-03-28T15:23:30.156Z,7.60
2023-03-28T15:25:58.943Z,10.05
2023-03-28T15:28:27.154Z,6.63
2023-03-28T15:30:57.538Z,6.75
2023-03-28T15:33:26.062Z,10.30
2023-03-28T15:36:06.167Z,5.30
2023-03-28T15:38:38.797Z,5.45
2023-03-28T15:41:11.179Z,9.55
2023-03-28T15:43:41.032Z,6.68
2023-03-28T15:46:14.479Z,6.32
2023-03-28T15:48:42.749Z,7.80
2023-03-28T15:51:15.116Z,9.20
2023-03-28T15:53:43.151Z,5.03
2023-03-28T15:56:13.899Z,5.65
2023-03-28T15:58:42.612Z,6.07
2023-03-28T16:01:25.565Z,6.45
2023-03-28T16:04:15.039Z,4.65
2023-03-28T16:06:44.041Z,5.45
2023-03-28T16:09:16.861Z,7.72
2023-03-28T16:11:45.317Z,4.38
2023-03-28T16:14:31.627Z,4.53
2023-03-28T16:17:07.627Z,6.28
2023-03-28T16:19:57.896Z,4.45
2023-03-28T16:22:26.105Z,4.50
2023-03-28T16:24:54.667Z,6.30
2023-03-28T16:27:22.893Z,8.05
2023-03-28T16:29:51.100Z,7.55
2023-03-28T16:32:23.753Z,6.55
2023-03-28T16:34:52.678Z,5.63
2023-03-28T16:37:20.838Z,4.45
2023-03-28T16:39:48.906Z,6.78
2023-03-28T16:42:16.857Z,10.57
2023-03-28T16:44:44.832Z,5.70
2023-03-28T16:47:12.729Z,6.80
2023-03-28T16:49:42.131Z,8.25
2023-03-28T16:52:10.049Z,7.55
2023-03-28T16:54:38.198Z,4.45
2023-03-28T16:57:06.159Z,5.13
2023-03-28T16:59:34.157Z,6.57
2023-03-28T17:02:02.169Z,7.55
2023-03-28T17:04:30.429Z,8.60
2023-03-28T17:06:59.688Z,5.40
2023-03-28T17:09:27.663Z,3.80
2023-03-28T17:11:55.564Z,4.43
2023-03-28T17:14:23.528Z,7.75
2023-03-28T17:16:51.770Z,6.30
2023-03-28T17:19:23.168Z,7.50
2023-03-28T17:21:51.609Z,3.72
2023-03-28T17:24:21.681Z,5.13
2023-03-28T17:26:49.603Z,4.38
2023-03-28T17:29:17.488Z,7.68
2023-03-28T17:31:45.389Z,4.13
2023-03-28T17:34:13.472Z,4.78
2023-03-28T17:36:42.059Z,7.15
2023-03-28T17:39:10.377Z,4.03
2023-03-28T17:41:39.652Z,3.55
2023-03-28T17:44:08.878Z,3.80
2023-03-28T17:46:37.502Z,5.78
2023-03-28T17:49:05.795Z,3.67
2023-03-28T17:51:34.013Z,4.80
2023-03-28T17:54:01.993Z,3.75
2023-03-28T17:56:29.970Z,5.07
2023-03-28T17:58:59.981Z,3.63
2023-03-28T18:01:28.021Z,3.00
2023-03-28T18:03:56.141Z,3.65
2023-03-28T18:06:47.262Z,6.88
2023-03-28T18:09:15.558Z,3.13
2023-03-28T18:11:43.472Z,3.13
2023-03-28T18:14:12.990Z,3.58
2023-03-28T18:16:41.107Z,4.43
2023-03-28T18:19:12.447Z,5.13
2023-03-28T18:21:40.433Z,4.43
2023-03-28T18:24:08.935Z,3.00
2023-03-28T18:26:36.915Z,4.40
2023-03-28T18:29:05.070Z,3.75
2023-03-28T18:31:36.672Z,5.18
2023-03-28T18:34:05.263Z,2.67
2023-03-28T18:36:33.208Z,3.42
2023-03-28T18:39:01.279Z,4.40
2023-03-28T18:41:29.289Z,6.22
2023-03-28T18:43:57.378Z,3.65
2023-03-28T18:46:26.574Z,3.60
2023-03-28T18:48:55.893Z,3.10
2023-03-28T18:51:23.882Z,4.97
2023-03-28T18:53:52.418Z,3.38
2023-03-28T18:56:20.357Z,4.45
2023-03-28T18:58:48.957Z,9.82
2023-03-28T19:01:17.421Z,4.57
2023-03-28T19:03:47.044Z,3.03
2023-03-28T19:06:16.626Z,3.47
2023-03-28T19:08:44.778Z,3.72
2023-03-28T19:11:14.161Z,8.30
2023-03-28T19:13:42.559Z,2.85
2023-03-28T19:16:11.572Z,8.35
2023-03-28T19:18:39.857Z,4.15
2023-03-28T19:21:07.954Z,3.97
2023-03-28T19:23:37.955Z,3.90
2023-03-28T19:26:06.740Z,3.97
2023-03-28T19:28:34.822Z,5.07
2023-03-28T19:31:03.642Z,3.63
2023-03-28T19:33:31.747Z,3.70
2023-03-28T19:36:00.343Z,5.07
2023-03-28T19:38:30.720Z,5.32
2023-03-28T19:41:00.430Z,4.60
2023-03-28T19:43:28.498Z,4.72
2023-03-28T19:46:02.006Z,4.10
2023-03-28T19:48:30.177Z,4.25
2023-03-28T19:50:58.124Z,3.58
2023-03-28T19:53:26.127Z,5.97
2023-03-28T19:55:56.826Z,6.00
2023-03-28T19:58:26.247Z,4.78
2023-03-28T20:00:54.143Z,7.13
2023-03-28T20:03:22.056Z,6.70
2023-03-28T20:05:50.132Z,7.32
2023-03-28T20:08:19.026Z,17.05
2023-03-28T20:10:47.951Z,16.35
2023-03-28T20:13:16.141Z,26.30
2023-03-28T20:15:45.756Z,15.77
2023-03-28T20:18:15.598Z,25.33
2023-03-28T20:20:43.672Z,20.67
2023-03-28T20:23:12.607Z,20.42
2023-03-28T20:25:40.508Z,13.60
2023-03-28T20:28:09.987Z,20.98
2023-03-28T20:30:38.118Z,18.85
2023-03-28T20:33:07.494Z,22.02
2023-03-28T20:35:35.629Z,18.73
2023-03-28T20:38:03.616Z,13.40
2023-03-28T20:40:31.537Z,11.75
2023-03-28T20:43:01.840Z,16.58
2023-03-28T20:45:29.866Z,17.27
2023-03-28T20:47:58.839Z,15.10
2023-03-28T20:50:33.878Z,8.90
2023-03-28T20:53:02.097Z,14.57
2023-03-28T20:55:31.189Z,25.30
2023-03-28T20:57:59.249Z,16.25
2023-03-28T21:00:30.081Z,11.73
2023-03-28T21:02:58.036Z,11.35
2023-03-28T21:05:27.158Z,10.18
2023-03-28T21:07:57.004Z,10.82
2023-03-28T21:10:25.090Z,14.18
2023-03-28T21:12:52.969Z,17.67
2023-03-28T21:15:21.025Z,12.23
2023-03-28T21:17:53.443Z,10.30
2023-03-28T21:20:21.840Z,13.60
2023-03-28T21:22:49.819Z,8.70
2023-03-28T21:25:20.868Z,7.90
2023-03-28T21:27:48.836Z,13.60
2023-03-28T21:30:17.858Z,10.77
2023-03-28T21:32:47.675Z,9.88
2023-03-28T21:35:16.235Z,8.48
2023-03-28T21:37:44.165Z,10.30
2023-03-28T21:40:13.034Z,12.20
2023-03-28T21:42:42.640Z,6.00
2023-03-28T21:45:12.217Z,9.82
2023-03-28T21:47:41.504Z,7.43
2023-03-28T21:50:11.908Z,9.60
2023-03-28T21:52:41.083Z,8.77
2023-03-28T21:55:09.869Z,8.25
2023-03-28T21:57:37.845Z,8.73
2023-03-28T22:00:14.949Z,14.68
2023-03-28T22:02:43.445Z,9.20
2023-03-28T22:05:22.557Z,7.38
2023-03-28T22:07:56.907Z,8.98
2023-03-28T22:10:26.532Z,9.25
2023-03-28T22:12:54.612Z,9.07
2023-03-28T22:15:23.872Z,8.57
2023-03-28T22:17:58.169Z,6.45
2023-03-28T22:20:26.606Z,5.32
2023-03-28T22:22:54.619Z,6.25
2023-03-28T22:25:23.468Z,7.22
2023-03-28T22:27:52.863Z,6.72
2023-03-28T22:30:21.033Z,4.88
2023-03-28T22:32:50.706Z,5.47
2023-03-28T22:35:18.738Z,5.38
2023-03-28T22:37:46.669Z,4.82
2023-03-28T22:40:15.000Z,5.70
2023-03-28T22:42:43.240Z,5.65
2023-03-28T22:45:11.308Z,4.65
2023-03-28T22:47:40.189Z,4.40
2023-03-28T22:50:11.309Z,4.63
2023-03-28T22:52:42.086Z,5.50
2023-03-28T22:55:11.070Z,4.53
2023-03-28T22:57:38.932Z,4.85
2023-03-28T23:00:08.372Z,4.03
2023-03-28T23:02:36.415Z,4.03
2023-03-28T23:05:05.742Z,7.72
2023-03-28T23:07:36.008Z,3.75
2023-03-28T23:10:04.307Z,6.90
2023-03-28T23:12:32.219Z,4.55
2023-03-28T23:15:00.206Z,4.93
2023-03-28T23:17:28.436Z,7.43
2023-03-28T23:19:56.502Z,3.95
2023-03-28T23:22:24.412Z,4.57
2023-03-28T23:24:53.677Z,5.10
2023-03-28T23:27:21.712Z,5.60
2023-03-28T23:29:49.564Z,4.80
2023-03-28T23:32:17.469Z,4.15
2023-03-28T23:34:45.351Z,3.97
2023-03-28T23:37:13.981Z,4.75
2023-03-28T23:39:42.247Z,5.18
2023-03-28T23:42:11.539Z,5.63
2023-03-28T23:44:39.393Z,4.60
2023-03-28T23:47:07.854Z,4.97
2023-03-28T23:49:35.829Z,5.20
2023-03-28T23:52:03.727Z,6.10
2023-03-28T23:54:31.633Z,4.30
2023-03-28T23:56:59.590Z,5.70
2023-03-28T23:59:29.123Z,3.65
